PWSweather.com
Personal Weather Stations
Station Observations
WISCHPK61
Green Bay Schmitt Park, Green Bay, WI 54311

Green Bay Schmitt ParkGreen Bay, WI 54311

Lat: 44.514277, Lon: -87.935067

Elevation: 735

Station Type: Acu Rite Pro Weather Center model 02032C

http://greenbayweathercam.com

High Low Average
Temperature 43.2°F6.2°C 9.5°F-12.5°C 24.1°F-4.4°C
Dew Point 42.9°F6.1°C 5.3°F-14.8°C 23.0°F-5.0°C
Winds 1.2 mph 1.9 kmh Calm Calm Calm SCalm S
Wind Gusts 1.2 mph1.9 kmh -- --
Humidity 99% 75% 96%
Pressure 29.71 in1006.1 mb 29.61 in1002.7 mb -
Precipitation 0.12 in3.0 mm - -
Hour Temp Dew Point Humidity Winds Wind Gusts Pressure Precip Precip Rate Daily Precip Total
12:00 AM 15.6°F-9.1°C 15.4°F-9.2°C 99% Calm Calm -- 29.58 in1001.7 mb - 0.00 in0.0 mm 0.02 in0.5 mm
01:00 AM 14.4°F-9.8°C 14.2°F-9.9°C 99% Calm Calm -- 29.61 in1002.7 mb - 0.00 in0.0 mm 0.00 in0.0 mm
02:00 AM 13.5°F-10.3°C 13.3°F-10.4°C 99% Calm Calm -- 29.63 in1003.4 mb - 0.00 in0.0 mm 0.00 in0.0 mm
03:00 AM 12.4°F-10.9°C 12.2°F-11.0°C 99% Calm Calm -- 29.65 in1004.1 mb - 0.00 in0.0 mm 0.00 in0.0 mm
04:00 AM 11.8°F-11.2°C 6.8°F-14.0°C 80% Calm Calm -- 29.65 in1004.1 mb - 0.00 in0.0 mm 0.00 in0.0 mm
05:00 AM 10.8°F-11.8°C 5.3°F-14.8°C 78% Calm Calm -- 29.66 in1004.4 mb - 0.00 in0.0 mm 0.00 in0.0 mm
06:00 AM 10.3°F-12.1°C 10.1°F-12.2°C 99% Calm Calm -- 29.68 in1005.1 mb - 0.00 in0.0 mm 0.00 in0.0 mm
07:00 AM 9.9°F-12.3°C 9.7°F-12.4°C 99% Calm Calm -- 29.69 in1005.4 mb - 0.00 in0.0 mm 0.00 in0.0 mm
08:00 AM 9.5°F-12.5°C 9.3°F-12.6°C 99% Calm Calm -- 29.68 in1005.1 mb - 0.00 in0.0 mm 0.00 in0.0 mm
09:00 AM 13.3°F-10.4°C 13.1°F-10.5°C 99% Calm Calm -- 29.71 in1006.1 mb - 0.00 in0.0 mm 0.00 in0.0 mm
10:00 AM 23.5°F-4.7°C 23.3°F-4.8°C 99% Calm Calm -- 29.71 in1006.1 mb - 0.00 in0.0 mm 0.00 in0.0 mm
11:00 AM 32.1°F0.1°C 29.0°F-1.7°C 88% Calm Calm -- 29.71 in1006.1 mb - 0.00 in0.0 mm 0.00 in0.0 mm
12:00 PM 38.5°F3.6°C 38.3°F3.5°C 99% Calm Calm -- 29.70 in1005.8 mb - 0.00 in0.0 mm 0.00 in0.0 mm
01:00 PM 42.4°F5.8°C 42.1°F5.6°C 99% 1.2 mph S1.9 kmh S 1.2 mph1.9 kmh 29.71 in1006.1 mb - 0.01 in0.3 mm 0.01 in0.3 mm
02:00 PM 43.2°F6.2°C 42.9°F6.1°C 99% Calm Calm -- 29.71 in1006.1 mb - 0.01 in0.3 mm 0.02 in0.5 mm
03:00 PM 38.8°F3.8°C 37.2°F2.9°C 94% Calm Calm -- 29.68 in1005.1 mb - 0.05 in1.3 mm 0.07 in1.8 mm
04:00 PM 37.1°F2.8°C 36.9°F2.7°C 99% Calm Calm -- 29.68 in1005.1 mb - 0.05 in1.3 mm 0.12 in3.0 mm
05:00 PM 34.0°F1.1°C 33.7°F0.9°C 99% Calm Calm -- 29.67 in1004.7 mb - 0.00 in0.0 mm 0.12 in3.0 mm
06:00 PM 31.1°F-0.5°C 30.9°F-0.6°C 99% Calm Calm -- 29.66 in1004.4 mb - 0.00 in0.0 mm 0.12 in3.0 mm
07:00 PM 26.8°F-2.9°C 26.6°F-3.0°C 99% Calm Calm -- 29.64 in1003.7 mb - 0.00 in0.0 mm 0.12 in3.0 mm
08:00 PM 25.3°F-3.7°C 25.1°F-3.8°C 99% Calm Calm -- 29.66 in1004.4 mb - 0.00 in0.0 mm 0.12 in3.0 mm
09:00 PM 24.7°F-4.1°C 17.9°F-7.8°C 75% Calm Calm -- 29.66 in1004.4 mb - 0.00 in0.0 mm 0.12 in3.0 mm
10:00 PM 23.7°F-4.6°C 23.5°F-4.7°C 99% Calm Calm -- 29.65 in1004.1 mb - 0.00 in0.0 mm 0.12 in3.0 mm
11:00 PM 24.8°F-4.0°C 24.6°F-4.1°C 99% Calm Calm -- 29.65 in1004.1 mb - 0.00 in0.0 mm 0.12 in3.0 mm